createdAt,value
2023-02-21T00:12:55.063Z,952.08
2023-02-21T00:27:57.332Z,951.69
2023-02-21T00:42:59.613Z,950.96
2023-02-21T00:58:01.830Z,950.47
2023-02-21T01:13:04.321Z,949.72
2023-02-21T01:28:06.634Z,949.41
2023-02-21T01:43:09.555Z,948.35
2023-02-21T01:58:11.811Z,947.65
2023-02-21T02:13:14.093Z,947.22
2023-02-21T02:28:16.302Z,947
2023-02-21T02:43:18.610Z,946.98
2023-02-21T02:58:21.334Z,946.94
2023-02-21T03:13:23.686Z,947.02
2023-02-21T03:28:26.169Z,947.14
2023-02-21T03:43:28.393Z,947.45
2023-02-21T03:58:30.776Z,946.96
2023-02-21T04:13:33.081Z,946.4
2023-02-21T04:28:35.326Z,945.78
2023-02-21T04:43:37.641Z,945.34
2023-02-21T04:58:45.373Z,944.76
2023-02-21T05:13:48.127Z,944.2
2023-02-21T05:28:50.504Z,943.93
2023-02-21T05:43:52.734Z,943.69
2023-02-21T05:58:55.213Z,943.33
2023-02-21T06:13:57.568Z,942.98
2023-02-21T06:28:59.841Z,942.68
2023-02-21T06:44:02.108Z,942.33
2023-02-21T06:59:04.524Z,942.19
2023-02-21T07:14:06.764Z,942.09
2023-02-21T07:29:09.142Z,941.85
2023-02-21T07:44:11.419Z,941.66
2023-02-21T07:59:13.730Z,941.58
2023-02-21T08:14:16.022Z,941.48
2023-02-21T08:29:23.233Z,941.4
2023-02-21T08:44:25.441Z,941.34
2023-02-21T08:59:27.857Z,941.43
2023-02-21T09:14:30.166Z,941.39
2023-02-21T09:29:44.830Z,941.4
2023-02-21T09:44:48.573Z,941.39
2023-02-21T09:59:55.948Z,941.25
2023-02-21T10:14:58.190Z,941.16
2023-02-21T10:30:00.497Z,940.93
2023-02-21T10:45:02.857Z,940.96
2023-02-21T11:00:05.155Z,940.83
2023-02-21T11:15:07.634Z,940.78
2023-02-21T11:30:10.218Z,940.76
2023-02-21T11:45:13.276Z,940.67
2023-02-21T12:00:15.598Z,940.67
2023-02-21T12:15:17.880Z,940.63
2023-02-21T12:30:20.192Z,940.65
2023-02-21T12:45:22.727Z,940.65
2023-02-21T13:00:25.017Z,940.73
2023-02-21T13:15:27.321Z,940.7
2023-02-21T13:30:29.578Z,940.66
2023-02-21T13:45:31.874Z,940.73
2023-02-21T14:00:34.254Z,940.65
2023-02-21T14:15:36.527Z,940.78
2023-02-21T14:30:38.825Z,940.82
2023-02-21T14:45:41.129Z,941.08
2023-02-21T15:00:43.454Z,940.97
2023-02-21T15:15:45.746Z,940.93
2023-02-21T15:30:48.049Z,941.07
2023-02-21T15:45:51.430Z,941.27
2023-02-21T16:00:53.819Z,941.25
2023-02-21T16:15:56.117Z,941.37
2023-02-21T16:30:58.469Z,941.33
2023-02-21T16:46:00.899Z,941.33
2023-02-21T17:01:08.426Z,941.34
2023-02-21T17:16:10.737Z,941.34
2023-02-21T17:31:13.052Z,941.21
2023-02-21T17:46:15.372Z,941.21
2023-02-21T18:01:17.819Z,941.2
2023-02-21T18:16:20.185Z,941.22
2023-02-21T18:31:22.628Z,941.23
2023-02-21T18:46:24.936Z,941.3
2023-02-21T19:01:27.311Z,941.39
2023-02-21T19:16:29.651Z,941.49
2023-02-21T19:31:32.065Z,941.65
2023-02-21T19:46:34.397Z,941.9
2023-02-21T20:01:36.776Z,942.45
2023-02-21T20:16:39.134Z,943.26
2023-02-21T20:31:41.496Z,943.7
2023-02-21T20:46:43.817Z,944.16
2023-02-21T21:01:46.088Z,944.59
2023-02-21T21:16:48.315Z,944.95
2023-02-21T21:31:50.782Z,945.33
2023-02-21T21:46:53.025Z,945.73
2023-02-21T22:01:55.292Z,946
2023-02-21T22:16:57.572Z,946.29
2023-02-21T22:31:59.853Z,946.45
2023-02-21T22:47:02.255Z,946.63
2023-02-21T23:02:04.520Z,946.72
2023-02-21T23:17:06.776Z,947.02
2023-02-21T23:32:09.386Z,947.2
2023-02-21T23:47:12.149Z,947.49
